createdAt,value
2017-12-10T00:00:03.799Z,1001.09
2017-12-10T00:01:03.757Z,1001.06
2017-12-10T00:02:03.720Z,1001.04
2017-12-10T00:03:03.673Z,1001.09
2017-12-10T00:04:03.633Z,1001.05
2017-12-10T00:05:03.589Z,1001.03
2017-12-10T00:06:03.561Z,1001.01
2017-12-10T00:07:03.504Z,1001.00
2017-12-10T00:08:03.470Z,1000.98
2017-12-10T00:09:03.435Z,1000.96
2017-12-10T00:10:03.380Z,1001.00
2017-12-10T00:11:03.335Z,1000.96
2017-12-10T00:12:03.295Z,1000.93
2017-12-10T00:13:03.253Z,1000.94
2017-12-10T00:14:03.210Z,1001.00
2017-12-10T00:15:03.174Z,1000.90
2017-12-10T00:16:03.128Z,1000.92
2017-12-10T00:17:03.087Z,1000.94
2017-12-10T00:18:03.045Z,1000.92
2017-12-10T00:19:03.005Z,1000.95
2017-12-10T00:20:02.966Z,1000.94
2017-12-10T00:21:02.918Z,1000.99
2017-12-10T00:22:02.878Z,1000.98
2017-12-10T00:23:02.834Z,1000.93
2017-12-10T00:24:02.793Z,1000.95
2017-12-10T00:25:02.751Z,1000.94
2017-12-10T00:26:02.712Z,1000.96
2017-12-10T00:27:02.673Z,1000.97
2017-12-10T00:28:02.625Z,1000.92
2017-12-10T00:29:02.585Z,1000.96
2017-12-10T00:30:02.542Z,1000.93
2017-12-10T00:31:02.498Z,1000.92
2017-12-10T00:32:02.458Z,1000.90
2017-12-10T00:33:02.415Z,1000.95
2017-12-10T00:34:02.376Z,1000.87
2017-12-10T00:35:02.330Z,1000.87
2017-12-10T00:36:02.290Z,1000.84
2017-12-10T00:37:02.253Z,1000.83
2017-12-10T00:38:02.208Z,1000.84
2017-12-10T00:39:02.173Z,1000.81
2017-12-10T00:40:02.121Z,1000.84
2017-12-10T00:41:02.087Z,1000.84
2017-12-10T00:42:02.037Z,1000.86
2017-12-10T00:43:01.997Z,1000.85
2017-12-10T00:44:01.951Z,1000.85
2017-12-10T00:45:01.911Z,1000.84
2017-12-10T00:46:01.877Z,1000.83
2017-12-10T00:47:01.833Z,1000.87
2017-12-10T00:48:01.790Z,1000.89
2017-12-10T00:49:01.742Z,1000.85
2017-12-10T00:50:01.707Z,1000.86
2017-12-10T00:51:01.662Z,1000.85
2017-12-10T00:52:01.619Z,1000.82
2017-12-10T00:53:01.574Z,1000.83
2017-12-10T00:54:01.532Z,1000.91
2017-12-10T00:55:01.497Z,1000.84
2017-12-10T00:56:01.452Z,1000.82
2017-12-10T00:57:01.420Z,1000.85
2017-12-10T00:58:01.375Z,1000.80
2017-12-10T00:59:01.324Z,1000.85
2017-12-10T01:00:01.285Z,1000.83
2017-12-10T01:01:01.240Z,1000.82
2017-12-10T01:02:01.198Z,1000.84
2017-12-10T01:03:01.156Z,1000.80
2017-12-10T01:04:01.112Z,1000.84
2017-12-10T01:05:01.073Z,1000.80
2017-12-10T01:06:01.028Z,1000.82
2017-12-10T01:07:00.991Z,1000.78
2017-12-10T01:08:00.947Z,1000.77
2017-12-10T01:09:00.905Z,1000.79
2017-12-10T01:10:00.863Z,1000.74
2017-12-10T01:11:00.831Z,1000.73
2017-12-10T01:12:00.782Z,1000.75
2017-12-10T01:13:00.739Z,1000.74
2017-12-10T01:14:00.714Z,1000.67
2017-12-10T01:15:00.651Z,1000.71
2017-12-10T01:16:00.610Z,1000.70
2017-12-10T01:17:00.571Z,1000.72
2017-12-10T01:18:00.532Z,1000.71
2017-12-10T01:19:00.483Z,1000.69
2017-12-10T01:20:00.441Z,1000.70
2017-12-10T01:21:00.399Z,1000.70
2017-12-10T01:22:00.359Z,1000.72
2017-12-10T01:23:00.315Z,1000.71
2017-12-10T01:24:00.275Z,1000.72
2017-12-10T01:25:00.229Z,1000.66
2017-12-10T01:26:00.189Z,1000.69
2017-12-10T01:27:00.147Z,1000.65
2017-12-10T01:28:00.119Z,1000.69
2017-12-10T01:29:00.061Z,1000.70
2017-12-10T01:30:00.021Z,1000.63
2017-12-10T01:30:59.978Z,1000.56
2017-12-10T01:31:59.933Z,1000.64
2017-12-10T01:32:59.906Z,1000.50
2017-12-10T01:33:59.852Z,1000.56
2017-12-10T01:34:59.813Z,1000.53
2017-12-10T01:35:59.770Z,1000.52
2017-12-10T01:36:59.732Z,1000.50
2017-12-10T01:37:59.686Z,1000.51
2017-12-10T01:38:59.643Z,1000.49
2017-12-10T01:39:59.614Z,1000.43
2017-12-10T01:40:59.563Z,1000.44
2017-12-10T01:41:59.521Z,1000.39
2017-12-10T01:42:59.473Z,1000.45
2017-12-10T01:43:59.432Z,1000.43
2017-12-10T01:44:59.398Z,1000.48
2017-12-10T01:45:59.350Z,1000.45
2017-12-10T01:46:59.315Z,1000.49
2017-12-10T01:47:59.277Z,1000.44
2017-12-10T01:48:59.242Z,1000.45
2017-12-10T01:49:59.207Z,1000.44
2017-12-10T01:50:59.151Z,1000.45
2017-12-10T01:51:59.101Z,1000.44
2017-12-10T01:52:59.062Z,1000.42
2017-12-10T01:53:59.019Z,1000.44
2017-12-10T01:54:58.974Z,1000.40
2017-12-10T01:55:58.931Z,1000.36
2017-12-10T01:56:58.889Z,1000.38
2017-12-10T01:57:58.848Z,1000.30
2017-12-10T01:58:58.805Z,1000.35
2017-12-10T01:59:58.771Z,1000.31
2017-12-10T02:00:58.724Z,1000.33
2017-12-10T02:01:58.679Z,1000.35
2017-12-10T02:02:58.653Z,1000.35
2017-12-10T02:03:58.601Z,1000.28
2017-12-10T02:04:58.553Z,1000.33
2017-12-10T02:05:58.511Z,1000.29
2017-12-10T02:06:58.468Z,1000.26
2017-12-10T02:07:58.439Z,1000.29
2017-12-10T02:08:58.425Z,1000.27
2017-12-10T02:09:58.354Z,1000.27
2017-12-10T02:10:59.073Z,1000.26
2017-12-10T02:11:58.259Z,1000.24
2017-12-10T02:12:58.213Z,1000.22
2017-12-10T02:13:58.171Z,1000.18
2017-12-10T02:14:58.130Z,1000.22
2017-12-10T02:15:58.087Z,1000.20
2017-12-10T02:16:58.045Z,1000.13
2017-12-10T02:17:58.006Z,1000.17
2017-12-10T02:18:57.960Z,1000.13
2017-12-10T02:19:57.919Z,1000.16
2017-12-10T02:20:57.883Z,1000.16
2017-12-10T02:21:57.832Z,1000.10
2017-12-10T02:22:57.793Z,1000.05
2017-12-10T02:23:57.749Z,1000.01
2017-12-10T02:24:57.714Z,1000.00
2017-12-10T02:25:57.668Z,1000.02
2017-12-10T02:26:57.622Z,1000.03
2017-12-10T02:27:57.581Z,999.97
2017-12-10T02:28:57.540Z,999.96
2017-12-10T02:29:57.496Z,999.95
2017-12-10T02:30:57.453Z,999.92
2017-12-10T02:31:57.412Z,999.91
2017-12-10T02:32:57.369Z,999.89
2017-12-10T02:33:57.328Z,999.91
2017-12-10T02:34:57.286Z,999.90
2017-12-10T02:35:57.242Z,999.94
2017-12-10T02:36:57.203Z,999.88
2017-12-10T02:37:57.165Z,999.88
2017-12-10T02:38:57.123Z,999.82
2017-12-10T02:39:57.075Z,999.77
2017-12-10T02:40:57.036Z,999.77
2017-12-10T02:41:56.994Z,999.71
2017-12-10T02:42:56.951Z,999.71
2017-12-10T02:43:56.910Z,999.72
2017-12-10T02:44:56.861Z,999.71
2017-12-10T02:45:56.826Z,999.67
2017-12-10T02:46:56.776Z,999.65
2017-12-10T02:47:56.740Z,999.63
2017-12-10T02:48:56.691Z,999.62
2017-12-10T02:49:56.652Z,999.62
2017-12-10T02:50:56.605Z,999.62
2017-12-10T02:51:56.564Z,999.56
2017-12-10T02:52:56.523Z,999.59
2017-12-10T02:53:56.481Z,999.58
2017-12-10T02:54:56.437Z,999.53
2017-12-10T02:55:56.397Z,999.56
2017-12-10T02:56:56.356Z,999.55
2017-12-10T02:57:56.310Z,999.48
2017-12-10T02:58:56.263Z,999.48
2017-12-10T02:59:56.226Z,999.45
2017-12-10T03:00:56.182Z,999.50
2017-12-10T03:01:56.147Z,999.47
2017-12-10T03:02:56.095Z,999.44
2017-12-10T03:03:56.056Z,999.43
2017-12-10T03:04:56.013Z,999.42
2017-12-10T03:05:55.974Z,999.32
2017-12-10T03:06:55.926Z,999.34
2017-12-10T03:07:55.883Z,999.31
2017-12-10T03:08:55.842Z,999.31
2017-12-10T03:09:55.798Z,999.36
2017-12-10T03:10:55.759Z,999.28
2017-12-10T03:11:55.712Z,999.34
2017-12-10T03:12:55.679Z,999.34
2017-12-10T03:13:55.628Z,999.35
2017-12-10T03:14:55.586Z,999.40
2017-12-10T03:15:55.543Z,999.33
2017-12-10T03:16:55.500Z,999.33
2017-12-10T03:17:55.461Z,999.37
2017-12-10T03:18:55.415Z,999.33
2017-12-10T03:19:55.380Z,999.32
2017-12-10T03:20:55.341Z,999.31
2017-12-10T03:21:55.288Z,999.27
2017-12-10T03:22:55.244Z,999.30
2017-12-10T03:23:55.204Z,999.26
2017-12-10T03:24:55.160Z,999.26
2017-12-10T03:25:55.119Z,999.24
2017-12-10T03:26:55.070Z,999.26
2017-12-10T03:27:55.029Z,999.26
2017-12-10T03:28:54.988Z,999.28
2017-12-10T03:29:54.948Z,999.25
2017-12-10T03:30:54.901Z,999.28
2017-12-10T03:31:54.858Z,999.25
2017-12-10T03:32:54.818Z,999.20
2017-12-10T03:33:54.776Z,999.23
2017-12-10T03:34:54.732Z,999.19
2017-12-10T03:35:54.693Z,999.14
2017-12-10T03:36:54.646Z,999.13
2017-12-10T03:37:54.609Z,999.12
2017-12-10T03:38:54.563Z,999.11
2017-12-10T03:39:54.518Z,999.11
2017-12-10T03:40:54.476Z,999.06
2017-12-10T03:41:54.440Z,999.01
2017-12-10T03:42:54.390Z,999.03
2017-12-10T03:43:54.351Z,998.99
2017-12-10T03:44:54.306Z,999.05
2017-12-10T03:45:54.262Z,999.03
2017-12-10T03:46:54.223Z,998.99
2017-12-10T03:47:54.176Z,998.97
2017-12-10T03:48:54.133Z,998.95
2017-12-10T03:49:54.092Z,998.95
2017-12-10T03:50:54.045Z,998.95
2017-12-10T03:51:54.006Z,998.92
2017-12-10T03:52:53.966Z,998.88
2017-12-10T03:53:53.919Z,998.83
2017-12-10T03:54:53.887Z,998.80
2017-12-10T03:55:53.832Z,998.85
2017-12-10T03:56:53.805Z,998.82
2017-12-10T03:57:53.747Z,998.81
2017-12-10T03:58:53.712Z,998.77
2017-12-10T03:59:53.662Z,998.75
2017-12-10T04:00:53.619Z,998.78
2017-12-10T04:01:53.580Z,998.75
2017-12-10T04:02:53.533Z,998.76
2017-12-10T04:03:53.491Z,998.79
2017-12-10T04:04:53.449Z,998.74
2017-12-10T04:05:53.405Z,998.74
2017-12-10T04:06:53.360Z,998.79
2017-12-10T04:07:53.322Z,998.77
2017-12-10T04:08:53.277Z,998.82
2017-12-10T04:09:53.234Z,998.77
2017-12-10T04:10:53.195Z,998.77
2017-12-10T04:11:53.150Z,998.78
2017-12-10T04:12:53.123Z,998.74
2017-12-10T04:13:53.062Z,998.73
2017-12-10T04:14:53.037Z,998.73
2017-12-10T04:15:52.976Z,998.72
2017-12-10T04:16:52.950Z,998.74
2017-12-10T04:17:52.902Z,998.77
2017-12-10T04:18:52.859Z,998.74
2017-12-10T04:19:52.812Z,998.69
2017-12-10T04:20:52.773Z,998.69
2017-12-10T04:21:52.731Z,998.69
2017-12-10T04:22:52.694Z,998.66
2017-12-10T04:23:52.634Z,998.67
2017-12-10T04:24:52.602Z,998.64
2017-12-10T04:25:52.549Z,998.70
2017-12-10T04:26:52.508Z,998.70
2017-12-10T04:27:52.463Z,998.70
2017-12-10T04:28:52.434Z,998.70
2017-12-10T04:29:52.408Z,998.66
2017-12-10T04:30:52.335Z,998.68
2017-12-10T04:31:52.300Z,998.68
2017-12-10T04:32:52.257Z,998.66
2017-12-10T04:33:52.208Z,998.66
2017-12-10T04:34:52.162Z,998.64
2017-12-10T04:35:52.118Z,998.62
2017-12-10T04:36:52.078Z,998.64
2017-12-10T04:37:52.037Z,998.61
2017-12-10T04:38:51.990Z,998.61
2017-12-10T04:39:51.947Z,998.58
2017-12-10T04:40:51.913Z,998.60
2017-12-10T04:41:51.862Z,998.56
2017-12-10T04:42:51.815Z,998.58
2017-12-10T04:43:51.773Z,998.54
2017-12-10T04:44:51.731Z,998.52
2017-12-10T04:45:51.689Z,998.50
2017-12-10T04:46:51.646Z,998.55
2017-12-10T04:47:51.601Z,998.49
2017-12-10T04:48:51.558Z,998.53
2017-12-10T04:49:51.519Z,998.51
2017-12-10T04:50:51.480Z,998.49
2017-12-10T04:51:51.428Z,998.50
2017-12-10T04:52:51.389Z,998.53
2017-12-10T04:53:51.349Z,998.48
2017-12-10T04:54:51.305Z,998.53
2017-12-10T04:55:51.268Z,998.51
2017-12-10T04:56:51.214Z,998.47
2017-12-10T04:57:51.172Z,998.49
2017-12-10T04:58:51.133Z,998.37
2017-12-10T04:59:51.084Z,998.41
2017-12-10T05:00:51.044Z,998.43
2017-12-10T05:01:51.001Z,998.39
2017-12-10T05:02:50.967Z,998.41
2017-12-10T05:03:50.919Z,998.40
2017-12-10T05:04:50.871Z,998.36
2017-12-10T05:05:50.828Z,998.31
2017-12-10T05:06:50.789Z,998.35
2017-12-10T05:07:50.743Z,998.28
2017-12-10T05:08:50.700Z,998.28
2017-12-10T05:09:50.660Z,998.26
2017-12-10T05:10:50.624Z,998.19
2017-12-10T05:11:50.570Z,998.18
2017-12-10T05:12:50.529Z,998.22
2017-12-10T05:13:50.488Z,998.18
2017-12-10T05:14:50.447Z,998.09
2017-12-10T05:15:50.400Z,998.16
2017-12-10T05:16:50.356Z,998.11
2017-12-10T05:17:50.314Z,998.14
2017-12-10T05:18:50.268Z,998.10
2017-12-10T05:19:50.226Z,998.06
2017-12-10T05:20:50.185Z,998.09
2017-12-10T05:21:50.140Z,998.06
2017-12-10T05:22:50.104Z,998.08
2017-12-10T05:23:50.057Z,998.04
2017-12-10T05:24:50.016Z,998.08
2017-12-10T05:25:49.972Z,997.99
2017-12-10T05:26:49.936Z,997.93
2017-12-10T05:27:49.885Z,997.97
2017-12-10T05:28:49.838Z,997.93
2017-12-10T05:29:49.797Z,997.92
2017-12-10T05:30:49.750Z,997.92
2017-12-10T05:31:49.719Z,997.83
2017-12-10T05:32:49.671Z,997.80
2017-12-10T05:33:49.627Z,997.77
2017-12-10T05:34:49.582Z,997.79
2017-12-10T05:35:49.540Z,997.82
2017-12-10T05:36:49.496Z,997.72
2017-12-10T05:37:49.454Z,997.77
2017-12-10T05:38:49.410Z,997.73
2017-12-10T05:39:49.370Z,997.76
2017-12-10T05:40:49.330Z,997.70
2017-12-10T05:41:49.281Z,997.76
2017-12-10T05:42:49.246Z,997.74
2017-12-10T05:43:49.204Z,997.71
2017-12-10T05:44:49.154Z,997.66
2017-12-10T05:45:49.109Z,997.69
2017-12-10T05:46:49.066Z,997.61
2017-12-10T05:47:49.033Z,997.61
2017-12-10T05:48:48.981Z,997.72
2017-12-10T05:49:48.939Z,997.72
2017-12-10T05:50:48.895Z,997.67
2017-12-10T05:51:48.853Z,997.62
2017-12-10T05:52:48.810Z,997.59
2017-12-10T05:53:48.768Z,997.56
2017-12-10T05:54:48.724Z,997.54
2017-12-10T05:55:48.680Z,997.52
2017-12-10T05:56:48.645Z,997.53
2017-12-10T05:57:48.595Z,997.53
2017-12-10T05:58:48.550Z,997.50
2017-12-10T05:59:48.512Z,997.54
2017-12-10T06:00:48.468Z,997.50
2017-12-10T06:01:48.423Z,997.51
2017-12-10T06:02:48.383Z,997.53
2017-12-10T06:03:48.338Z,997.50
2017-12-10T06:04:48.293Z,997.50
2017-12-10T06:05:48.253Z,997.47
2017-12-10T06:06:48.210Z,997.47
2017-12-10T06:07:48.167Z,997.43
2017-12-10T06:08:48.124Z,997.42
2017-12-10T06:09:48.082Z,997.37
2017-12-10T06:10:48.037Z,997.39
2017-12-10T06:11:47.994Z,997.39
2017-12-10T06:12:47.953Z,997.34
2017-12-10T06:13:47.910Z,997.30
2017-12-10T06:14:47.870Z,997.20
2017-12-10T06:15:47.824Z,997.27
2017-12-10T06:16:47.780Z,997.18
2017-12-10T06:17:47.738Z,997.20
2017-12-10T06:18:47.694Z,997.13
2017-12-10T06:19:47.650Z,997.12
2017-12-10T06:20:47.615Z,997.10
2017-12-10T06:21:47.571Z,997.06
2017-12-10T06:22:47.524Z,997.05
2017-12-10T06:23:47.482Z,997.03
2017-12-10T06:24:47.438Z,997.03
2017-12-10T06:25:47.400Z,996.99
2017-12-10T06:26:47.358Z,996.94
2017-12-10T06:27:47.308Z,996.94
2017-12-10T06:28:47.268Z,996.91
2017-12-10T06:29:47.224Z,996.86
2017-12-10T06:30:47.183Z,996.88
2017-12-10T06:31:47.138Z,996.81
2017-12-10T06:32:47.103Z,996.87
2017-12-10T06:33:47.059Z,996.85
2017-12-10T06:34:47.016Z,996.86
2017-12-10T06:35:46.968Z,996.80
2017-12-10T06:36:46.924Z,996.77
2017-12-10T06:37:46.890Z,996.75
2017-12-10T06:38:46.845Z,996.72
2017-12-10T06:39:46.796Z,996.74
2017-12-10T06:40:46.761Z,996.77
2017-12-10T06:41:46.709Z,996.79
2017-12-10T06:42:46.669Z,996.74
2017-12-10T06:43:46.654Z,996.70
2017-12-10T06:44:46.583Z,996.72
2017-12-10T06:45:46.563Z,996.73
2017-12-10T06:46:46.511Z,996.68
2017-12-10T06:47:46.461Z,996.67
2017-12-10T06:48:46.408Z,996.60
2017-12-10T06:49:46.379Z,996.60
2017-12-10T06:50:46.350Z,996.57
2017-12-10T06:51:46.284Z,996.57
2017-12-10T06:52:46.250Z,996.60
2017-12-10T06:53:46.198Z,996.59
2017-12-10T06:54:46.170Z,996.54
2017-12-10T06:55:46.112Z,996.52
2017-12-10T06:56:46.075Z,996.53
2017-12-10T06:57:46.027Z,996.48
2017-12-10T06:58:45.994Z,996.45
2017-12-10T06:59:45.941Z,996.42
2017-12-10T07:00:45.901Z,996.47
2017-12-10T07:01:45.866Z,996.46
2017-12-10T07:02:45.811Z,996.39
2017-12-10T07:03:45.773Z,996.49
2017-12-10T07:04:45.728Z,996.47
2017-12-10T07:05:45.686Z,996.48
2017-12-10T07:06:45.643Z,996.45
2017-12-10T07:07:45.597Z,996.45
2017-12-10T07:08:45.557Z,996.44
2017-12-10T07:09:45.510Z,996.42
2017-12-10T07:10:45.469Z,996.43
2017-12-10T07:11:45.426Z,996.37
2017-12-10T07:12:45.382Z,996.36
2017-12-10T07:13:45.346Z,996.39
2017-12-10T07:14:45.297Z,996.35
2017-12-10T07:15:45.258Z,996.32
2017-12-10T07:16:45.223Z,996.29
2017-12-10T07:17:45.170Z,996.23
2017-12-10T07:18:45.125Z,996.17
2017-12-10T07:19:45.088Z,996.22
2017-12-10T07:20:45.041Z,996.15
2017-12-10T07:21:44.998Z,996.15
2017-12-10T07:22:44.962Z,996.19
2017-12-10T07:23:44.911Z,996.16
2017-12-10T07:24:44.868Z,996.10
2017-12-10T07:25:44.825Z,996.14
2017-12-10T07:26:44.782Z,996.13
2017-12-10T07:27:44.742Z,996.05
2017-12-10T07:28:44.697Z,996.12
2017-12-10T07:29:44.656Z,996.07
2017-12-10T07:30:44.613Z,996.07
2017-12-10T07:31:44.566Z,996.01
2017-12-10T07:32:44.525Z,996.04
2017-12-10T07:33:44.485Z,995.99
2017-12-10T07:34:44.441Z,995.99
2017-12-10T07:35:44.400Z,996.00
2017-12-10T07:36:44.351Z,995.90
2017-12-10T07:37:44.323Z,995.86
2017-12-10T07:38:44.272Z,995.84
2017-12-10T07:39:44.228Z,995.83
2017-12-10T07:40:44.184Z,995.78
2017-12-10T07:41:44.158Z,995.79
2017-12-10T07:42:44.102Z,995.72
2017-12-10T07:43:44.065Z,995.74
2017-12-10T07:44:44.011Z,995.78
2017-12-10T07:45:43.971Z,995.79
2017-12-10T07:46:43.930Z,995.78
2017-12-10T07:47:43.892Z,995.76
2017-12-10T07:48:43.845Z,995.80
2017-12-10T07:49:43.810Z,995.79
2017-12-10T07:50:43.756Z,995.76
2017-12-10T07:51:43.719Z,995.74
2017-12-10T07:52:43.670Z,995.74
2017-12-10T07:53:43.626Z,995.70
2017-12-10T07:54:43.592Z,995.67
2017-12-10T07:55:43.548Z,995.70
2017-12-10T07:56:43.500Z,995.69
2017-12-10T07:57:43.457Z,995.67
2017-12-10T07:58:43.413Z,995.65
2017-12-10T07:59:43.374Z,995.67
2017-12-10T08:00:43.334Z,995.63
2017-12-10T08:01:43.284Z,995.62
2017-12-10T08:02:43.255Z,995.63
2017-12-10T08:03:43.201Z,995.59
2017-12-10T08:04:43.157Z,995.57
2017-12-10T08:05:43.115Z,995.59
2017-12-10T08:06:43.074Z,995.52
2017-12-10T08:07:43.029Z,995.54
2017-12-10T08:08:42.987Z,995.53
2017-12-10T08:09:42.946Z,995.46
2017-12-10T08:10:42.900Z,995.48
2017-12-10T08:11:42.866Z,995.46
2017-12-10T08:12:42.824Z,995.46
2017-12-10T08:13:42.774Z,995.43
2017-12-10T08:14:42.728Z,995.45
2017-12-10T08:15:42.696Z,995.45
2017-12-10T08:16:42.648Z,995.43
2017-12-10T08:17:42.603Z,995.41
2017-12-10T08:18:42.560Z,995.40
2017-12-10T08:19:42.515Z,995.38
2017-12-10T08:20:42.477Z,995.40
2017-12-10T08:21:42.431Z,995.34
2017-12-10T08:22:42.388Z,995.34
2017-12-10T08:23:42.344Z,995.35
2017-12-10T08:24:42.302Z,995.29
2017-12-10T08:25:42.264Z,995.28
2017-12-10T08:26:42.225Z,995.29
2017-12-10T08:27:42.177Z,995.25
2017-12-10T08:28:42.138Z,995.19
2017-12-10T08:29:42.091Z,995.18
2017-12-10T08:30:42.049Z,995.12
2017-12-10T08:31:42.014Z,995.24
2017-12-10T08:32:41.964Z,995.17
2017-12-10T08:33:41.929Z,995.21
2017-12-10T08:34:41.883Z,995.19
2017-12-10T08:35:41.835Z,995.23
2017-12-10T08:36:41.794Z,995.22
2017-12-10T08:37:41.763Z,995.23
2017-12-10T08:38:41.718Z,995.27
2017-12-10T08:39:41.673Z,995.19
2017-12-10T08:40:41.624Z,995.15
2017-12-10T08:41:41.608Z,995.14
2017-12-10T08:42:41.539Z,995.13
2017-12-10T08:43:41.494Z,995.12
2017-12-10T08:44:41.454Z,995.09
2017-12-10T08:45:41.409Z,995.09
2017-12-10T08:46:41.368Z,995.10
2017-12-10T08:47:41.328Z,995.02
2017-12-10T08:48:41.289Z,995.08
2017-12-10T08:49:41.257Z,995.04
2017-12-10T08:50:41.198Z,995.07
2017-12-10T08:51:41.164Z,995.07
2017-12-10T08:52:41.128Z,995.00
2017-12-10T08:53:41.074Z,995.01
2017-12-10T08:54:41.038Z,994.97
2017-12-10T08:55:40.994Z,994.93
2017-12-10T08:56:40.957Z,994.93
2017-12-10T08:57:40.916Z,994.87
2017-12-10T08:58:40.869Z,994.84
2017-12-10T08:59:40.820Z,994.84
2017-12-10T09:00:40.785Z,994.74
2017-12-10T09:01:40.734Z,994.74
2017-12-10T09:02:40.705Z,994.68
2017-12-10T09:03:40.669Z,994.72
2017-12-10T09:04:40.612Z,994.68
2017-12-10T09:05:40.564Z,994.60
2017-12-10T09:06:40.533Z,994.58
2017-12-10T09:07:40.479Z,994.58
2017-12-10T09:08:40.445Z,994.59
2017-12-10T09:09:40.406Z,994.49
2017-12-10T09:10:40.361Z,994.51
2017-12-10T09:11:40.325Z,994.53
2017-12-10T09:12:40.272Z,994.53
2017-12-10T09:13:40.234Z,994.56
2017-12-10T09:14:40.187Z,994.53
2017-12-10T09:15:40.140Z,994.54
2017-12-10T09:16:40.101Z,994.42
2017-12-10T09:17:40.063Z,994.42
2017-12-10T09:18:40.206Z,994.40
2017-12-10T09:19:39.975Z,994.40
2017-12-10T09:20:39.935Z,994.40
2017-12-10T09:21:39.897Z,994.34
2017-12-10T09:22:39.848Z,994.33
2017-12-10T09:23:39.815Z,994.36
2017-12-10T09:24:39.810Z,994.21
2017-12-10T09:25:39.753Z,994.19
2017-12-10T09:26:39.682Z,994.19
2017-12-10T09:27:39.644Z,994.22
2017-12-10T09:28:39.621Z,994.19
2017-12-10T09:29:39.564Z,994.18
2017-12-10T09:30:39.507Z,994.12
2017-12-10T09:31:39.469Z,994.13
2017-12-10T09:32:39.430Z,994.03
2017-12-10T09:33:39.399Z,994.10
2017-12-10T09:34:39.340Z,994.03
2017-12-10T09:35:39.301Z,994.06
2017-12-10T09:36:39.255Z,994.08
2017-12-10T09:37:39.213Z,994.02
2017-12-10T09:38:39.173Z,994.05
2017-12-10T09:39:39.129Z,994.03
2017-12-10T09:40:39.088Z,994.02
2017-12-10T09:41:39.048Z,993.98
2017-12-10T09:42:39.003Z,993.99
2017-12-10T09:43:38.962Z,993.84
2017-12-10T09:44:38.939Z,993.88
2017-12-10T09:45:38.881Z,993.86
2017-12-10T09:46:38.838Z,993.85
2017-12-10T09:47:38.796Z,993.87
2017-12-10T09:48:38.757Z,993.73
2017-12-10T09:49:38.712Z,993.78
2017-12-10T09:50:38.669Z,993.74
2017-12-10T09:51:38.634Z,993.69
2017-12-10T09:52:38.591Z,993.62
2017-12-10T09:53:38.548Z,993.66
2017-12-10T09:54:38.505Z,993.63
2017-12-10T09:55:38.462Z,993.59
2017-12-10T09:56:38.422Z,993.54
2017-12-10T09:57:38.387Z,993.55
2017-12-10T09:58:38.347Z,993.55
2017-12-10T09:59:38.293Z,993.53
2017-12-10T10:00:38.255Z,993.49
2017-12-10T10:01:38.221Z,993.42
2017-12-10T10:02:38.176Z,993.39
2017-12-10T10:03:38.130Z,993.37
2017-12-10T10:04:38.107Z,993.32
2017-12-10T10:05:38.053Z,993.23
2017-12-10T10:06:38.002Z,993.15
2017-12-10T10:07:37.961Z,993.16
2017-12-10T10:08:37.931Z,993.17
2017-12-10T10:09:37.882Z,993.07
2017-12-10T10:10:37.844Z,993.07
2017-12-10T10:11:37.801Z,993.04
2017-12-10T10:12:37.762Z,993.01
2017-12-10T10:13:37.710Z,993.00
2017-12-10T10:14:37.669Z,992.97
2017-12-10T10:15:37.624Z,992.90
2017-12-10T10:16:37.591Z,992.86
2017-12-10T10:17:37.543Z,992.83
2017-12-10T10:18:37.508Z,992.73
2017-12-10T10:19:37.467Z,992.76
2017-12-10T10:20:37.434Z,992.75
2017-12-10T10:21:37.383Z,992.69
2017-12-10T10:22:37.331Z,992.73
2017-12-10T10:23:37.290Z,992.60
2017-12-10T10:24:37.255Z,992.59
2017-12-10T10:25:37.213Z,992.51
2017-12-10T10:26:37.165Z,992.53
2017-12-10T10:27:37.132Z,992.46
2017-12-10T10:28:37.079Z,992.34
2017-12-10T10:29:37.046Z,992.36
2017-12-10T10:30:36.999Z,992.35
2017-12-10T10:31:36.954Z,992.28
2017-12-10T10:32:36.910Z,992.22
2017-12-10T10:33:36.872Z,992.15
2017-12-10T10:34:36.825Z,992.11
2017-12-10T10:35:36.785Z,992.12
2017-12-10T10:36:36.744Z,992.15
2017-12-10T10:37:36.708Z,992.14
2017-12-10T10:38:36.663Z,992.10
2017-12-10T10:39:36.613Z,992.11
2017-12-10T10:40:36.569Z,991.89
2017-12-10T10:41:36.536Z,991.96
2017-12-10T10:42:36.496Z,991.97
2017-12-10T10:43:36.464Z,992.00
2017-12-10T10:44:36.408Z,991.90
2017-12-10T10:45:36.361Z,991.84
2017-12-10T10:46:36.328Z,991.84
2017-12-10T10:47:36.282Z,991.83
2017-12-10T10:48:36.237Z,991.72
2017-12-10T10:49:36.208Z,991.74
2017-12-10T10:50:36.150Z,991.74
2017-12-10T10:51:36.111Z,991.70
2017-12-10T10:52:36.067Z,991.70
2017-12-10T10:53:36.033Z,991.70
2017-12-10T10:54:35.984Z,991.64
2017-12-10T10:55:35.944Z,991.64
2017-12-10T10:56:35.903Z,991.54
2017-12-10T10:57:35.859Z,991.49
2017-12-10T10:58:35.816Z,991.41
2017-12-10T10:59:35.773Z,991.35
2017-12-10T11:00:35.734Z,991.33
2017-12-10T11:01:36.658Z,991.32
2017-12-10T11:02:35.930Z,991.27
2017-12-10T11:03:35.626Z,991.17
2017-12-10T11:04:35.565Z,991.09
2017-12-10T11:05:35.527Z,991.12
2017-12-10T11:06:35.488Z,991.05
2017-12-10T11:07:35.444Z,991.00
2017-12-10T11:08:35.404Z,990.96
2017-12-10T11:09:35.357Z,990.97
2017-12-10T11:10:35.328Z,990.86
2017-12-10T11:11:35.281Z,990.94
2017-12-10T11:12:35.232Z,990.81
2017-12-10T11:13:35.189Z,990.91
2017-12-10T11:14:35.151Z,990.84
2017-12-10T11:15:35.105Z,990.80
2017-12-10T11:16:35.112Z,990.81
2017-12-10T11:17:35.022Z,990.83
2017-12-10T11:18:34.983Z,990.80
2017-12-10T11:19:34.967Z,990.76
2017-12-10T11:20:34.907Z,990.73
2017-12-10T11:21:34.866Z,990.72
2017-12-10T11:22:34.810Z,990.70
2017-12-10T11:23:34.767Z,990.73
2017-12-10T11:24:34.734Z,990.68
2017-12-10T11:25:34.684Z,990.64
2017-12-10T11:26:34.643Z,990.67
2017-12-10T11:27:34.606Z,990.61
2017-12-10T11:28:34.567Z,990.61
2017-12-10T11:29:34.520Z,990.57
2017-12-10T11:30:34.483Z,990.49
2017-12-10T11:31:34.450Z,990.52
2017-12-10T11:32:34.400Z,990.44
2017-12-10T11:33:34.351Z,990.38
2017-12-10T11:34:34.305Z,990.39
2017-12-10T11:35:34.297Z,990.32
2017-12-10T11:36:34.240Z,990.20
2017-12-10T11:37:34.200Z,990.16
2017-12-10T11:38:34.173Z,990.00
2017-12-10T11:39:34.116Z,990.03
2017-12-10T11:40:34.064Z,990.03
2017-12-10T11:41:34.010Z,990.04
2017-12-10T11:42:33.980Z,989.92
2017-12-10T11:43:33.938Z,989.82
2017-12-10T11:44:33.887Z,989.84
2017-12-10T11:45:33.847Z,989.91
2017-12-10T11:46:33.801Z,989.74
2017-12-10T11:47:33.777Z,989.80
2017-12-10T11:48:33.739Z,989.73
2017-12-10T11:49:33.676Z,989.68
2017-12-10T11:50:33.687Z,989.67
2017-12-10T11:51:33.604Z,989.67
2017-12-10T11:52:33.561Z,989.55
2017-12-10T11:53:33.525Z,989.62
2017-12-10T11:54:33.467Z,989.66
2017-12-10T11:55:33.425Z,989.57
2017-12-10T11:56:33.429Z,989.66
2017-12-10T11:57:33.350Z,989.54
2017-12-10T11:58:34.169Z,989.36
2017-12-10T11:59:33.254Z,989.45
2017-12-10T12:00:33.218Z,989.38
2017-12-10T12:01:33.205Z,989.27
2017-12-10T12:02:33.133Z,989.27
2017-12-10T12:03:33.086Z,989.23
2017-12-10T12:04:33.048Z,989.26
2017-12-10T12:05:33.004Z,989.10
2017-12-10T12:06:32.959Z,989.15
2017-12-10T12:07:32.928Z,989.09
2017-12-10T12:08:32.884Z,989.00
2017-12-10T12:09:32.831Z,989.00
2017-12-10T12:10:32.799Z,988.99
2017-12-10T12:11:32.748Z,988.98
2017-12-10T12:12:32.701Z,988.98
2017-12-10T12:13:32.666Z,989.01
2017-12-10T12:14:32.618Z,989.00
2017-12-10T12:15:32.591Z,988.96
2017-12-10T12:16:32.547Z,988.91
2017-12-10T12:17:32.503Z,988.91
2017-12-10T12:18:32.457Z,988.96
2017-12-10T12:19:32.417Z,988.96
2017-12-10T12:20:32.368Z,988.91
2017-12-10T12:21:32.332Z,988.86
2017-12-10T12:22:32.287Z,988.83